sensor_id;sensor_type;location;lat;lon;timestamp;P1;durP1;ratioP1;P2;durP2;ratioP2
79631;SDS011;69108;41.120;16.874;2023-07-31T00:00:45;6.43;;;2.63;;
79631;SDS011;69108;41.120;16.874;2023-07-31T00:03:15;6.93;;;3.30;;
79631;SDS011;69108;41.120;16.874;2023-07-31T00:05:46;6.43;;;3.13;;
79631;SDS011;69108;41.120;16.874;2023-07-31T00:08:13;8.23;;;3.08;;
79631;SDS011;69108;41.120;16.874;2023-07-31T00:10:40;6.70;;;3.08;;
79631;SDS011;69108;41.120;16.874;2023-07-31T00:13:06;7.75;;;3.47;;
79631;SDS011;69108;41.120;16.874;2023-07-31T00:15:33;7.38;;;3.28;;
79631;SDS011;69108;41.120;16.874;2023-07-31T00:18:00;10.18;;;2.80;;
79631;SDS011;69108;41.120;16.874;2023-07-31T00:22:55;7.57;;;3.40;;
79631;SDS011;69108;41.120;16.874;2023-07-31T00:25:24;8.00;;;2.95;;
79631;SDS011;69108;41.120;16.874;2023-07-31T00:27:52;6.78;;;2.97;;
79631;SDS011;69108;41.120;16.874;2023-07-31T00:30:18;8.40;;;3.22;;
79631;SDS011;69108;41.120;16.874;2023-07-31T00:32:46;6.30;;;3.35;;
79631;SDS011;69108;41.120;16.874;2023-07-31T00:35:13;6.03;;;3.30;;
79631;SDS011;69108;41.120;16.874;2023-07-31T00:37:40;7.70;;;3.53;;
79631;SDS011;69108;41.120;16.874;2023-07-31T00:40:09;7.40;;;3.65;;
79631;SDS011;69108;41.120;16.874;2023-07-31T00:42:36;6.93;;;3.42;;
79631;SDS011;69108;41.120;16.874;2023-07-31T00:45:03;6.13;;;3.17;;
79631;SDS011;69108;41.120;16.874;2023-07-31T00:47:30;9.95;;;3.83;;
79631;SDS011;69108;41.120;16.874;2023-07-31T00:49:57;6.90;;;3.17;;
79631;SDS011;69108;41.120;16.874;2023-07-31T00:52:24;7.72;;;3.33;;
79631;SDS011;69108;41.120;16.874;2023-07-31T00:54:51;7.05;;;3.40;;
79631;SDS011;69108;41.120;16.874;2023-07-31T00:57:22;8.00;;;3.40;;
79631;SDS011;69108;41.120;16.874;2023-07-31T00:59:50;6.22;;;3.22;;
79631;SDS011;69108;41.120;16.874;2023-07-31T01:02:19;6.35;;;3.45;;
79631;SDS011;69108;41.120;16.874;2023-07-31T01:04:46;6.88;;;3.40;;
79631;SDS011;69108;41.120;16.874;2023-07-31T01:07:14;7.35;;;3.50;;
79631;SDS011;69108;41.120;16.874;2023-07-31T01:10:00;7.05;;;3.55;;
79631;SDS011;69108;41.120;16.874;2023-07-31T01:12:31;8.07;;;3.35;;
79631;SDS011;69108;41.120;16.874;2023-07-31T01:15:07;10.23;;;4.13;;
79631;SDS011;69108;41.120;16.874;2023-07-31T01:17:37;6.35;;;3.50;;
79631;SDS011;69108;41.120;16.874;2023-07-31T01:20:05;6.25;;;3.15;;
79631;SDS011;69108;41.120;16.874;2023-07-31T01:22:39;9.80;;;3.80;;
79631;SDS011;69108;41.120;16.874;2023-07-31T01:25:20;9.32;;;3.70;;
79631;SDS011;69108;41.120;16.874;2023-07-31T01:28:02;9.82;;;3.60;;
79631;SDS011;69108;41.120;16.874;2023-07-31T01:30:32;7.72;;;3.40;;
79631;SDS011;69108;41.120;16.874;2023-07-31T01:33:01;7.50;;;3.78;;
79631;SDS011;69108;41.120;16.874;2023-07-31T01:35:32;7.18;;;3.20;;
79631;SDS011;69108;41.120;16.874;2023-07-31T01:37:59;7.78;;;3.67;;
79631;SDS011;69108;41.120;16.874;2023-07-31T01:40:30;7.13;;;3.53;;
79631;SDS011;69108;41.120;16.874;2023-07-31T01:42:59;8.90;;;3.70;;
79631;SDS011;69108;41.120;16.874;2023-07-31T01:45:26;7.90;;;3.55;;
79631;SDS011;69108;41.120;16.874;2023-07-31T01:47:53;6.45;;;3.28;;
79631;SDS011;69108;41.120;16.874;2023-07-31T01:50:23;9.55;;;3.28;;
79631;SDS011;69108;41.120;16.874;2023-07-31T01:52:49;6.43;;;3.88;;
79631;SDS011;69108;41.120;16.874;2023-07-31T01:55:16;7.05;;;3.22;;
79631;SDS011;69108;41.120;16.874;2023-07-31T01:57:43;15.43;;;4.55;;
79631;SDS011;69108;41.120;16.874;2023-07-31T02:00:15;7.47;;;3.60;;
79631;SDS011;69108;41.120;16.874;2023-07-31T02:02:41;6.97;;;3.78;;
79631;SDS011;69108;41.120;16.874;2023-07-31T02:05:08;8.02;;;3.72;;
79631;SDS011;69108;41.120;16.874;2023-07-31T02:07:38;7.65;;;3.50;;
79631;SDS011;69108;41.120;16.874;2023-07-31T02:10:05;8.55;;;3.92;;
79631;SDS011;69108;41.120;16.874;2023-07-31T02:12:32;9.02;;;4.20;;
79631;SDS011;69108;41.120;16.874;2023-07-31T02:15:06;6.93;;;4.00;;
79631;SDS011;69108;41.120;16.874;2023-07-31T02:17:35;7.85;;;3.95;;
79631;SDS011;69108;41.120;16.874;2023-07-31T02:20:02;7.32;;;3.60;;
79631;SDS011;69108;41.120;16.874;2023-07-31T02:22:29;6.93;;;3.30;;
79631;SDS011;69108;41.120;16.874;2023-07-31T02:24:59;8.00;;;3.47;;
79631;SDS011;69108;41.120;16.874;2023-07-31T02:27:26;6.90;;;3.30;;
79631;SDS011;69108;41.120;16.874;2023-07-31T02:29:53;7.72;;;3.15;;
79631;SDS011;69108;41.120;16.874;2023-07-31T02:32:21;6.82;;;3.22;;
79631;SDS011;69108;41.120;16.874;2023-07-31T02:34:50;7.88;;;3.17;;
79631;SDS011;69108;41.120;16.874;2023-07-31T02:37:17;7.47;;;2.90;;
79631;SDS011;69108;41.120;16.874;2023-07-31T02:39:44;7.97;;;3.60;;
79631;SDS011;69108;41.120;16.874;2023-07-31T02:42:11;7.20;;;3.45;;
79631;SDS011;69108;41.120;16.874;2023-07-31T02:44:37;7.75;;;3.50;;
79631;SDS011;69108;41.120;16.874;2023-07-31T02:47:04;11.65;;;3.60;;
79631;SDS011;69108;41.120;16.874;2023-07-31T02:49:31;7.28;;;4.03;;
79631;SDS011;69108;41.120;16.874;2023-07-31T02:52:00;10.27;;;3.67;;
79631;SDS011;69108;41.120;16.874;2023-07-31T02:54:26;8.50;;;3.50;;
79631;SDS011;69108;41.120;16.874;2023-07-31T02:56:53;7.22;;;3.72;;
79631;SDS011;69108;41.120;16.874;2023-07-31T03:01:47;7.53;;;3.30;;
79631;SDS011;69108;41.120;16.874;2023-07-31T03:04:14;7.07;;;3.55;;
79631;SDS011;69108;41.120;16.874;2023-07-31T03:06:45;6.57;;;3.38;;
79631;SDS011;69108;41.120;16.874;2023-07-31T03:09:14;9.20;;;3.80;;
79631;SDS011;69108;41.120;16.874;2023-07-31T03:11:41;6.82;;;3.22;;
79631;SDS011;69108;41.120;16.874;2023-07-31T03:14:08;8.30;;;3.38;;
79631;SDS011;69108;41.120;16.874;2023-07-31T03:16:35;7.45;;;3.33;;
79631;SDS011;69108;41.120;16.874;2023-07-31T03:19:04;7.55;;;3.22;;
79631;SDS011;69108;41.120;16.874;2023-07-31T03:21:34;8.32;;;3.40;;
79631;SDS011;69108;41.120;16.874;2023-07-31T03:24:01;8.52;;;4.05;;
79631;SDS011;69108;41.120;16.874;2023-07-31T03:26:30;7.40;;;3.42;;
79631;SDS011;69108;41.120;16.874;2023-07-31T03:28:57;6.80;;;3.40;;
79631;SDS011;69108;41.120;16.874;2023-07-31T03:31:24;7.40;;;3.65;;
79631;SDS011;69108;41.120;16.874;2023-07-31T03:36:18;7.78;;;3.70;;
79631;SDS011;69108;41.120;16.874;2023-07-31T03:38:45;8.02;;;3.60;;
79631;SDS011;69108;41.120;16.874;2023-07-31T03:41:12;6.50;;;3.55;;
79631;SDS011;69108;41.120;16.874;2023-07-31T03:43:40;9.07;;;3.83;;
79631;SDS011;69108;41.120;16.874;2023-07-31T03:46:07;9.13;;;3.60;;
79631;SDS011;69108;41.120;16.874;2023-07-31T03:48:34;10.07;;;3.58;;
79631;SDS011;69108;41.120;16.874;2023-07-31T03:51:01;7.93;;;3.50;;
79631;SDS011;69108;41.120;16.874;2023-07-31T03:53:28;7.97;;;3.58;;
79631;SDS011;69108;41.120;16.874;2023-07-31T03:55:54;7.40;;;3.80;;
79631;SDS011;69108;41.120;16.874;2023-07-31T03:58:21;11.68;;;4.47;;
79631;SDS011;69108;41.120;16.874;2023-07-31T04:00:50;8.82;;;3.63;;
79631;SDS011;69108;41.120;16.874;2023-07-31T04:03:17;5.80;;;3.42;;
79631;SDS011;69108;41.120;16.874;2023-07-31T04:05:44;9.23;;;3.33;;
79631;SDS011;69108;41.120;16.874;2023-07-31T04:08:11;10.55;;;4.13;;
79631;SDS011;69108;41.120;16.874;2023-07-31T04:10:37;9.60;;;3.60;;
79631;SDS011;69108;41.120;16.874;2023-07-31T04:13:08;8.38;;;3.35;;
79631;SDS011;69108;41.120;16.874;2023-07-31T04:15:34;8.75;;;3.67;;
79631;SDS011;69108;41.120;16.874;2023-07-31T04:18:03;10.18;;;3.53;;
79631;SDS011;69108;41.120;16.874;2023-07-31T04:20:31;8.23;;;3.50;;
79631;SDS011;69108;41.120;16.874;2023-07-31T04:23:00;8.20;;;3.55;;
79631;SDS011;69108;41.120;16.874;2023-07-31T04:25:27;9.75;;;3.63;;
79631;SDS011;69108;41.120;16.874;2023-07-31T04:27:54;11.55;;;3.58;;
79631;SDS011;69108;41.120;16.874;2023-07-31T04:30:21;6.60;;;3.28;;
79631;SDS011;69108;41.120;16.874;2023-07-31T04:32:48;6.65;;;3.40;;
79631;SDS011;69108;41.120;16.874;2023-07-31T04:35:16;8.48;;;3.95;;
79631;SDS011;69108;41.120;16.874;2023-07-31T04:37:43;9.13;;;3.38;;
79631;SDS011;69108;41.120;16.874;2023-07-31T04:40:15;9.32;;;3.95;;
79631;SDS011;69108;41.120;16.874;2023-07-31T04:42:42;13.50;;;3.90;;
79631;SDS011;69108;41.120;16.874;2023-07-31T04:45:09;9.30;;;3.50;;
79631;SDS011;69108;41.120;16.874;2023-07-31T04:47:39;10.52;;;4.38;;
79631;SDS011;69108;41.120;16.874;2023-07-31T04:50:06;10.18;;;3.65;;
79631;SDS011;69108;41.120;16.874;2023-07-31T04:52:35;10.75;;;3.90;;
79631;SDS011;69108;41.120;16.874;2023-07-31T04:55:02;9.27;;;4.07;;
79631;SDS011;69108;41.120;16.874;2023-07-31T04:57:32;9.32;;;3.60;;
79631;SDS011;69108;41.120;16.874;2023-07-31T04:59:59;13.88;;;4.72;;
79631;SDS011;69108;41.120;16.874;2023-07-31T05:02:26;17.05;;;4.55;;
79631;SDS011;69108;41.120;16.874;2023-07-31T05:04:53;14.00;;;4.85;;
79631;SDS011;69108;41.120;16.874;2023-07-31T05:07:20;13.43;;;4.47;;
79631;SDS011;69108;41.120;16.874;2023-07-31T05:09:48;8.23;;;3.95;;
79631;SDS011;69108;41.120;16.874;2023-07-31T05:12:16;11.98;;;4.50;;
79631;SDS011;69108;41.120;16.874;2023-07-31T05:14:43;12.20;;;5.03;;
79631;SDS011;69108;41.120;16.874;2023-07-31T05:17:11;18.23;;;5.05;;
79631;SDS011;69108;41.120;16.874;2023-07-31T05:19:38;12.52;;;4.05;;
79631;SDS011;69108;41.120;16.874;2023-07-31T05:22:05;10.95;;;3.95;;
79631;SDS011;69108;41.120;16.874;2023-07-31T05:24:32;26.23;;;12.05;;
79631;SDS011;69108;41.120;16.874;2023-07-31T05:27:00;12.18;;;4.22;;
79631;SDS011;69108;41.120;16.874;2023-07-31T05:29:30;12.00;;;4.50;;
79631;SDS011;69108;41.120;16.874;2023-07-31T05:31:57;13.60;;;4.38;;
79631;SDS011;69108;41.120;16.874;2023-07-31T05:34:24;14.18;;;4.20;;
79631;SDS011;69108;41.120;16.874;2023-07-31T05:39:18;9.50;;;4.40;;
79631;SDS011;69108;41.120;16.874;2023-07-31T05:44:16;14.55;;;4.70;;
79631;SDS011;69108;41.120;16.874;2023-07-31T05:46:43;17.40;;;4.68;;
79631;SDS011;69108;41.120;16.874;2023-07-31T05:49:10;20.50;;;5.25;;
79631;SDS011;69108;41.120;16.874;2023-07-31T05:51:37;13.93;;;5.00;;
79631;SDS011;69108;41.120;16.874;2023-07-31T05:54:04;13.43;;;4.38;;
79631;SDS011;69108;41.120;16.874;2023-07-31T05:56:31;12.57;;;4.13;;
79631;SDS011;69108;41.120;16.874;2023-07-31T05:58:59;15.75;;;4.95;;
79631;SDS011;69108;41.120;16.874;2023-07-31T06:01:30;12.65;;;5.00;;
79631;SDS011;69108;41.120;16.874;2023-07-31T06:03:57;14.85;;;5.07;;
79631;SDS011;69108;41.120;16.874;2023-07-31T06:06:28;13.77;;;4.53;;
79631;SDS011;69108;41.120;16.874;2023-07-31T06:08:55;12.45;;;4.82;;
79631;SDS011;69108;41.120;16.874;2023-07-31T06:11:22;10.68;;;3.67;;
79631;SDS011;69108;41.120;16.874;2023-07-31T06:13:49;10.35;;;4.30;;
79631;SDS011;69108;41.120;16.874;2023-07-31T06:16:16;11.80;;;4.53;;
79631;SDS011;69108;41.120;16.874;2023-07-31T06:18:44;12.23;;;4.60;;
79631;SDS011;69108;41.120;16.874;2023-07-31T06:21:11;10.38;;;3.75;;
79631;SDS011;69108;41.120;16.874;2023-07-31T06:23:37;14.35;;;4.25;;
79631;SDS011;69108;41.120;16.874;2023-07-31T06:26:04;11.23;;;4.60;;
79631;SDS011;69108;41.120;16.874;2023-07-31T06:28:34;11.23;;;4.20;;
79631;SDS011;69108;41.120;16.874;2023-07-31T06:31:03;15.32;;;4.63;;
79631;SDS011;69108;41.120;16.874;2023-07-31T06:33:30;9.88;;;3.80;;
79631;SDS011;69108;41.120;16.874;2023-07-31T06:35:58;10.75;;;3.85;;
79631;SDS011;69108;41.120;16.874;2023-07-31T06:38:27;13.55;;;4.18;;
79631;SDS011;69108;41.120;16.874;2023-07-31T06:40:54;11.18;;;4.15;;
79631;SDS011;69108;41.120;16.874;2023-07-31T06:43:21;9.57;;;3.75;;
79631;SDS011;69108;41.120;16.874;2023-07-31T06:45:48;10.05;;;4.20;;
79631;SDS011;69108;41.120;16.874;2023-07-31T06:48:16;7.50;;;4.20;;
79631;SDS011;69108;41.120;16.874;2023-07-31T06:50:43;12.88;;;5.90;;
79631;SDS011;69108;41.120;16.874;2023-07-31T06:55:38;11.75;;;5.13;;
79631;SDS011;69108;41.120;16.874;2023-07-31T06:58:05;9.88;;;4.85;;
79631;SDS011;69108;41.120;16.874;2023-07-31T07:00:32;12.40;;;4.80;;
79631;SDS011;69108;41.120;16.874;2023-07-31T07:02:59;12.23;;;5.55;;
79631;SDS011;69108;41.120;16.874;2023-07-31T07:05:28;11.48;;;4.47;;
79631;SDS011;69108;41.120;16.874;2023-07-31T07:07:55;9.63;;;5.07;;
79631;SDS011;69108;41.120;16.874;2023-07-31T07:10:23;9.55;;;4.60;;
79631;SDS011;69108;41.120;16.874;2023-07-31T07:12:50;15.18;;;5.47;;
79631;SDS011;69108;41.120;16.874;2023-07-31T07:17:44;10.35;;;4.60;;
79631;SDS011;69108;41.120;16.874;2023-07-31T07:20:12;8.75;;;3.97;;
79631;SDS011;69108;41.120;16.874;2023-07-31T07:22:39;12.35;;;4.97;;
79631;SDS011;69108;41.120;16.874;2023-07-31T07:25:08;12.25;;;4.70;;
79631;SDS011;69108;41.120;16.874;2023-07-31T07:27:37;10.45;;;4.15;;
79631;SDS011;69108;41.120;16.874;2023-07-31T07:30:04;9.52;;;4.90;;
79631;SDS011;69108;41.120;16.874;2023-07-31T07:32:32;8.10;;;4.68;;
79631;SDS011;69108;41.120;16.874;2023-07-31T07:34:59;9.63;;;4.28;;
79631;SDS011;69108;41.120;16.874;2023-07-31T07:37:26;15.50;;;4.85;;
79631;SDS011;69108;41.120;16.874;2023-07-31T07:39:55;8.68;;;4.72;;
79631;SDS011;69108;41.120;16.874;2023-07-31T07:42:22;11.95;;;4.63;;
79631;SDS011;69108;41.120;16.874;2023-07-31T07:44:50;8.63;;;4.28;;
79631;SDS011;69108;41.120;16.874;2023-07-31T07:47:17;11.73;;;5.00;;
79631;SDS011;69108;41.120;16.874;2023-07-31T07:49:44;13.13;;;4.78;;
79631;SDS011;69108;41.120;16.874;2023-07-31T07:52:11;9.00;;;5.13;;
79631;SDS011;69108;41.120;16.874;2023-07-31T07:54:41;12.10;;;5.13;;
79631;SDS011;69108;41.120;16.874;2023-07-31T07:57:08;11.00;;;4.63;;
79631;SDS011;69108;41.120;16.874;2023-07-31T07:59:35;9.70;;;4.45;;
79631;SDS011;69108;41.120;16.874;2023-07-31T08:02:03;11.35;;;5.13;;
79631;SDS011;69108;41.120;16.874;2023-07-31T08:04:30;11.80;;;4.72;;
79631;SDS011;69108;41.120;16.874;2023-07-31T08:09:24;11.10;;;4.32;;
79631;SDS011;69108;41.120;16.874;2023-07-31T08:11:53;11.13;;;4.50;;
79631;SDS011;69108;41.120;16.874;2023-07-31T08:14:23;12.43;;;4.50;;
79631;SDS011;69108;41.120;16.874;2023-07-31T08:16:49;11.27;;;4.43;;
79631;SDS011;69108;41.120;16.874;2023-07-31T08:19:18;10.02;;;4.15;;
79631;SDS011;69108;41.120;16.874;2023-07-31T08:21:46;10.38;;;4.97;;
79631;SDS011;69108;41.120;16.874;2023-07-31T08:24:13;9.82;;;4.22;;
79631;SDS011;69108;41.120;16.874;2023-07-31T08:26:41;12.30;;;4.35;;
79631;SDS011;69108;41.120;16.874;2023-07-31T08:29:08;9.13;;;4.53;;
79631;SDS011;69108;41.120;16.874;2023-07-31T08:31:35;10.90;;;3.50;;
79631;SDS011;69108;41.120;16.874;2023-07-31T08:34:02;7.13;;;3.05;;
79631;SDS011;69108;41.120;16.874;2023-07-31T08:36:31;8.00;;;2.90;;
79631;SDS011;69108;41.120;16.874;2023-07-31T08:38:57;6.25;;;2.70;;
79631;SDS011;69108;41.120;16.874;2023-07-31T08:41:27;6.50;;;2.80;;
79631;SDS011;69108;41.120;16.874;2023-07-31T08:43:54;7.68;;;2.85;;
79631;SDS011;69108;41.120;16.874;2023-07-31T08:46:21;6.10;;;2.70;;
79631;SDS011;69108;41.120;16.874;2023-07-31T08:48:52;7.35;;;2.92;;
79631;SDS011;69108;41.120;16.874;2023-07-31T08:51:19;10.25;;;3.20;;
79631;SDS011;69108;41.120;16.874;2023-07-31T08:53:54;7.70;;;3.00;;
79631;SDS011;69108;41.120;16.874;2023-07-31T08:56:22;5.85;;;2.60;;
79631;SDS011;69108;41.120;16.874;2023-07-31T08:58:50;7.93;;;2.78;;
79631;SDS011;69108;41.120;16.874;2023-07-31T09:01:17;6.07;;;2.78;;
79631;SDS011;69108;41.120;16.874;2023-07-31T09:03:45;9.48;;;3.13;;
79631;SDS011;69108;41.120;16.874;2023-07-31T09:06:12;6.10;;;2.80;;
79631;SDS011;69108;41.120;16.874;2023-07-31T09:08:40;7.25;;;2.85;;
79631;SDS011;69108;41.120;16.874;2023-07-31T09:11:09;6.82;;;2.67;;
79631;SDS011;69108;41.120;16.874;2023-07-31T09:13:40;7.68;;;3.03;;
79631;SDS011;69108;41.120;16.874;2023-07-31T09:16:07;7.55;;;2.83;;
79631;SDS011;69108;41.120;16.874;2023-07-31T09:18:38;11.23;;;2.83;;
79631;SDS011;69108;41.120;16.874;2023-07-31T09:21:19;4.90;;;2.15;;
79631;SDS011;69108;41.120;16.874;2023-07-31T09:23:47;5.90;;;2.58;;
79631;SDS011;69108;41.120;16.874;2023-07-31T09:26:32;6.47;;;2.55;;
79631;SDS011;69108;41.120;16.874;2023-07-31T09:29:04;8.55;;;2.78;;
79631;SDS011;69108;41.120;16.874;2023-07-31T09:31:37;7.75;;;2.72;;
79631;SDS011;69108;41.120;16.874;2023-07-31T09:34:05;7.63;;;2.40;;
79631;SDS011;69108;41.120;16.874;2023-07-31T09:36:33;6.65;;;2.47;;
79631;SDS011;69108;41.120;16.874;2023-07-31T09:39:09;7.45;;;3.00;;
79631;SDS011;69108;41.120;16.874;2023-07-31T09:41:38;11.40;;;2.70;;
79631;SDS011;69108;41.120;16.874;2023-07-31T09:44:08;10.65;;;3.47;;
79631;SDS011;69108;41.120;16.874;2023-07-31T09:46:36;9.60;;;2.90;;
79631;SDS011;69108;41.120;16.874;2023-07-31T09:49:06;6.40;;;2.58;;
79631;SDS011;69108;41.120;16.874;2023-07-31T09:51:34;8.18;;;2.70;;
79631;SDS011;69108;41.120;16.874;2023-07-31T09:54:04;8.07;;;2.72;;
79631;SDS011;69108;41.120;16.874;2023-07-31T09:56:42;5.82;;;2.28;;
79631;SDS011;69108;41.120;16.874;2023-07-31T09:59:13;5.85;;;2.55;;
79631;SDS011;69108;41.120;16.874;2023-07-31T10:01:41;8.68;;;3.28;;
79631;SDS011;69108;41.120;16.874;2023-07-31T10:04:12;7.90;;;3.00;;
79631;SDS011;69108;41.120;16.874;2023-07-31T10:06:40;7.28;;;2.50;;
79631;SDS011;69108;41.120;16.874;2023-07-31T10:09:12;7.82;;;2.80;;
79631;SDS011;69108;41.120;16.874;2023-07-31T10:11:47;7.53;;;3.00;;
79631;SDS011;69108;41.120;16.874;2023-07-31T10:14:21;5.38;;;2.70;;
79631;SDS011;69108;41.120;16.874;2023-07-31T10:16:50;7.80;;;2.80;;
79631;SDS011;69108;41.120;16.874;2023-07-31T10:19:17;6.85;;;2.75;;
79631;SDS011;69108;41.120;16.874;2023-07-31T10:21:44;6.03;;;2.88;;
79631;SDS011;69108;41.120;16.874;2023-07-31T10:24:11;8.57;;;2.28;;
79631;SDS011;69108;41.120;16.874;2023-07-31T10:26:39;6.45;;;2.33;;
79631;SDS011;69108;41.120;16.874;2023-07-31T10:29:07;7.18;;;2.92;;
79631;SDS011;69108;41.120;16.874;2023-07-31T10:31:34;6.80;;;2.83;;
79631;SDS011;69108;41.120;16.874;2023-07-31T10:34:01;7.68;;;4.13;;
79631;SDS011;69108;41.120;16.874;2023-07-31T10:36:30;10.07;;;4.32;;
79631;SDS011;69108;41.120;16.874;2023-07-31T10:42:00;6.90;;;2.65;;
79631;SDS011;69108;41.120;16.874;2023-07-31T10:44:37;6.75;;;2.75;;
79631;SDS011;69108;41.120;16.874;2023-07-31T10:47:06;6.80;;;3.20;;
79631;SDS011;69108;41.120;16.874;2023-07-31T10:49:35;7.63;;;2.83;;
79631;SDS011;69108;41.120;16.874;2023-07-31T10:52:05;8.55;;;3.50;;
79631;SDS011;69108;41.120;16.874;2023-07-31T10:54:40;9.50;;;3.20;;
79631;SDS011;69108;41.120;16.874;2023-07-31T10:57:18;6.25;;;2.92;;
79631;SDS011;69108;41.120;16.874;2023-07-31T10:59:47;8.43;;;3.10;;
79631;SDS011;69108;41.120;16.874;2023-07-31T11:02:23;8.50;;;3.28;;
79631;SDS011;69108;41.120;16.874;2023-07-31T11:05:05;7.32;;;3.13;;
79631;SDS011;69108;41.120;16.874;2023-07-31T11:07:46;6.50;;;2.92;;
79631;SDS011;69108;41.120;16.874;2023-07-31T11:10:15;6.10;;;2.80;;
79631;SDS011;69108;41.120;16.874;2023-07-31T11:12:44;8.25;;;3.53;;
79631;SDS011;69108;41.120;16.874;2023-07-31T11:15:15;9.32;;;3.50;;
79631;SDS011;69108;41.120;16.874;2023-07-31T11:17:42;10.55;;;3.65;;
79631;SDS011;69108;41.120;16.874;2023-07-31T11:20:10;8.50;;;3.17;;
79631;SDS011;69108;41.120;16.874;2023-07-31T11:22:37;8.30;;;3.30;;
79631;SDS011;69108;41.120;16.874;2023-07-31T11:25:05;7.25;;;3.30;;
79631;SDS011;69108;41.120;16.874;2023-07-31T11:27:38;6.68;;;3.45;;
79631;SDS011;69108;41.120;16.874;2023-07-31T11:30:07;6.80;;;2.97;;
79631;SDS011;69108;41.120;16.874;2023-07-31T11:32:37;9.93;;;3.72;;
79631;SDS011;69108;41.120;16.874;2023-07-31T11:35:04;9.23;;;3.42;;
79631;SDS011;69108;41.120;16.874;2023-07-31T11:37:39;9.23;;;3.60;;
79631;SDS011;69108;41.120;16.874;2023-07-31T11:40:07;7.68;;;3.25;;
79631;SDS011;69108;41.120;16.874;2023-07-31T11:42:35;7.15;;;3.00;;
79631;SDS011;69108;41.120;16.874;2023-07-31T11:45:16;6.88;;;2.83;;
79631;SDS011;69108;41.120;16.874;2023-07-31T11:47:44;9.45;;;3.42;;
79631;SDS011;69108;41.120;16.874;2023-07-31T11:50:12;6.55;;;3.08;;
79631;SDS011;69108;41.120;16.874;2023-07-31T11:52:42;7.10;;;2.95;;
79631;SDS011;69108;41.120;16.874;2023-07-31T11:55:10;6.28;;;2.60;;
79631;SDS011;69108;41.120;16.874;2023-07-31T11:57:38;5.55;;;2.53;;
79631;SDS011;69108;41.120;16.874;2023-07-31T12:00:07;8.65;;;3.10;;
79631;SDS011;69108;41.120;16.874;2023-07-31T12:02:39;7.07;;;2.97;;
79631;SDS011;69108;41.120;16.874;2023-07-31T12:05:09;8.63;;;3.15;;
79631;SDS011;69108;41.120;16.874;2023-07-31T12:07:44;6.00;;;3.03;;
79631;SDS011;69108;41.120;16.874;2023-07-31T12:10:27;8.38;;;3.75;;
79631;SDS011;69108;41.120;16.874;2023-07-31T12:12:56;9.10;;;3.55;;
79631;SDS011;69108;41.120;16.874;2023-07-31T12:15:32;6.97;;;3.22;;
79631;SDS011;69108;41.120;16.874;2023-07-31T12:18:00;8.40;;;3.20;;
79631;SDS011;69108;41.120;16.874;2023-07-31T12:20:32;8.70;;;3.30;;
79631;SDS011;69108;41.120;16.874;2023-07-31T12:23:00;6.45;;;3.30;;
79631;SDS011;69108;41.120;16.874;2023-07-31T12:25:31;8.20;;;3.08;;
79631;SDS011;69108;41.120;16.874;2023-07-31T12:28:03;5.85;;;2.80;;
79631;SDS011;69108;41.120;16.874;2023-07-31T12:30:36;6.72;;;2.95;;
79631;SDS011;69108;41.120;16.874;2023-07-31T12:33:04;7.95;;;3.50;;
79631;SDS011;69108;41.120;16.874;2023-07-31T12:35:37;5.25;;;3.20;;
79631;SDS011;69108;41.120;16.874;2023-07-31T12:38:07;6.63;;;3.03;;
79631;SDS011;69108;41.120;16.874;2023-07-31T12:40:36;5.35;;;2.80;;
79631;SDS011;69108;41.120;16.874;2023-07-31T12:43:04;5.88;;;2.97;;
79631;SDS011;69108;41.120;16.874;2023-07-31T12:45:33;10.63;;;3.55;;
79631;SDS011;69108;41.120;16.874;2023-07-31T12:48:00;6.70;;;2.90;;
79631;SDS011;69108;41.120;16.874;2023-07-31T12:50:27;8.15;;;3.40;;
79631;SDS011;69108;41.120;16.874;2023-07-31T12:53:04;7.80;;;3.88;;
79631;SDS011;69108;41.120;16.874;2023-07-31T12:55:31;6.57;;;2.92;;
79631;SDS011;69108;41.120;16.874;2023-07-31T12:58:02;5.55;;;3.90;;
79631;SDS011;69108;41.120;16.874;2023-07-31T13:00:29;5.97;;;2.83;;
79631;SDS011;69108;41.120;16.874;2023-07-31T13:02:56;5.50;;;3.00;;
79631;SDS011;69108;41.120;16.874;2023-07-31T13:05:25;10.75;;;3.17;;
79631;SDS011;69108;41.120;16.874;2023-07-31T13:07:52;7.80;;;3.00;;
79631;SDS011;69108;41.120;16.874;2023-07-31T13:10:21;6.70;;;3.00;;
79631;SDS011;69108;41.120;16.874;2023-07-31T13:12:48;6.03;;;2.80;;
79631;SDS011;69108;41.120;16.874;2023-07-31T13:15:15;6.20;;;2.70;;
79631;SDS011;69108;41.120;16.874;2023-07-31T13:17:43;6.63;;;2.85;;
79631;SDS011;69108;41.120;16.874;2023-07-31T13:20:10;6.80;;;3.03;;
79631;SDS011;69108;41.120;16.874;2023-07-31T13:22:37;4.95;;;3.25;;
79631;SDS011;69108;41.120;16.874;2023-07-31T13:27:32;5.35;;;3.28;;
79631;SDS011;69108;41.120;16.874;2023-07-31T13:30:00;6.07;;;3.28;;
79631;SDS011;69108;41.120;16.874;2023-07-31T13:34:53;5.68;;;3.13;;
79631;SDS011;69108;41.120;16.874;2023-07-31T13:39:47;5.60;;;2.92;;
79631;SDS011;69108;41.120;16.874;2023-07-31T13:42:14;5.65;;;3.33;;
79631;SDS011;69108;41.120;16.874;2023-07-31T13:44:43;6.15;;;3.72;;
79631;SDS011;69108;41.120;16.874;2023-07-31T13:47:10;5.30;;;3.15;;
79631;SDS011;69108;41.120;16.874;2023-07-31T13:52:04;5.35;;;3.05;;
79631;SDS011;69108;41.120;16.874;2023-07-31T13:54:31;5.95;;;3.10;;
79631;SDS011;69108;41.120;16.874;2023-07-31T13:56:58;4.82;;;2.92;;
79631;SDS011;69108;41.120;16.874;2023-07-31T14:01:53;7.25;;;3.25;;
79631;SDS011;69108;41.120;16.874;2023-07-31T14:04:20;6.18;;;3.58;;
79631;SDS011;69108;41.120;16.874;2023-07-31T14:06:47;5.43;;;3.10;;
79631;SDS011;69108;41.120;16.874;2023-07-31T14:09:16;7.53;;;3.67;;
79631;SDS011;69108;41.120;16.874;2023-07-31T14:14:10;7.22;;;4.05;;
79631;SDS011;69108;41.120;16.874;2023-07-31T14:16:38;6.65;;;3.58;;
79631;SDS011;69108;41.120;16.874;2023-07-31T14:19:07;5.80;;;3.42;;
79631;SDS011;69108;41.120;16.874;2023-07-31T14:21:34;5.53;;;3.42;;
79631;SDS011;69108;41.120;16.874;2023-07-31T14:24:02;5.80;;;3.90;;
79631;SDS011;69108;41.120;16.874;2023-07-31T14:26:29;5.28;;;3.58;;
79631;SDS011;69108;41.120;16.874;2023-07-31T14:28:56;8.55;;;4.15;;
79631;SDS011;69108;41.120;16.874;2023-07-31T14:31:22;6.07;;;3.75;;
79631;SDS011;69108;41.120;16.874;2023-07-31T14:33:49;7.03;;;4.35;;
79631;SDS011;69108;41.120;16.874;2023-07-31T14:38:54;8.45;;;5.28;;
79631;SDS011;69108;41.120;16.874;2023-07-31T14:41:21;8.05;;;4.85;;
79631;SDS011;69108;41.120;16.874;2023-07-31T14:43:48;6.78;;;4.30;;
79631;SDS011;69108;41.120;16.874;2023-07-31T14:46:19;9.60;;;4.28;;
79631;SDS011;69108;41.120;16.874;2023-07-31T14:48:48;8.20;;;3.50;;
79631;SDS011;69108;41.120;16.874;2023-07-31T14:51:15;6.38;;;3.90;;
79631;SDS011;69108;41.120;16.874;2023-07-31T14:53:44;5.90;;;3.90;;
79631;SDS011;69108;41.120;16.874;2023-07-31T14:56:12;5.57;;;3.75;;
79631;SDS011;69108;41.120;16.874;2023-07-31T15:01:06;5.78;;;4.10;;
79631;SDS011;69108;41.120;16.874;2023-07-31T15:03:34;5.95;;;3.97;;
79631;SDS011;69108;41.120;16.874;2023-07-31T15:06:01;7.32;;;4.82;;
79631;SDS011;69108;41.120;16.874;2023-07-31T15:08:33;8.38;;;4.78;;
79631;SDS011;69108;41.120;16.874;2023-07-31T15:11:03;8.05;;;5.05;;
79631;SDS011;69108;41.120;16.874;2023-07-31T15:13:29;7.53;;;4.82;;
79631;SDS011;69108;41.120;16.874;2023-07-31T15:15:56;8.13;;;4.55;;
79631;SDS011;69108;41.120;16.874;2023-07-31T15:18:24;6.80;;;4.93;;
79631;SDS011;69108;41.120;16.874;2023-07-31T15:20:51;7.32;;;4.90;;